Time;durP1;ratioP1;P1;durP2;ratioP2;P2;SDS_P1;SDS_P2;PMS_P1;PMS_P2;Temp;Humidity;BMP_temperature;BMP_pressure;BME280_temperature;BME280_humidity;BME280_pressure;Samples;Min_cycle;Max_cycle;Signal;HPM_P1;HPM_P2
2022/03/09 00:02:41;;;;;;;17.07;11.90;;;;;0.90;101476.00;;;;10274883;28;20207;-76
2022/03/09 00:07:43;;;;;;;15.03;10.17;;;;;1.00;101476.00;;;;10294112;28;20211;-76
2022/03/09 00:12:45;;;;;;;15.30;9.43;;;;;1.20;101479.00;;;;10292367;28;20623;-76
2022/03/09 00:17:47;;;;;;;15.73;11.33;;;;;1.30;101492.00;;;;10299143;28;20223;-76
2022/03/09 00:22:49;;;;;;;21.00;11.27;;;;;1.30;101486.00;;;;10306179;28;20290;-76
2022/03/09 00:27:50;;;;;;;15.47;10.70;;;;;1.20;101494.00;;;;10279581;28;20270;-76
2022/03/09 00:32:52;;;;;;;16.10;10.97;;;;;0.90;101486.00;;;;10313098;28;20287;-76
2022/03/09 00:37:55;;;;;;;18.47;10.83;;;;;0.90;101487.00;;;;10305335;28;20224;-77
2022/03/09 00:42:57;;;;;;;15.17;10.40;;;;;1.10;101490.00;;;;10305712;28;20200;-77
2022/03/09 00:47:59;;;;;;;18.57;11.13;;;;;1.00;101488.00;;;;10273112;28;20816;-77
2022/03/09 00:53:01;;;;;;;17.33;11.13;;;;;0.90;101495.00;;;;10272767;28;20216;-77
2022/03/09 00:58:03;;;;;;;17.93;10.53;;;;;0.70;101497.00;;;;10288188;28;20222;-77
2022/03/09 01:03:04;;;;;;;12.87;10.03;;;;;0.50;101497.00;;;;10315116;28;20204;-77
2022/03/09 01:08:07;;;;;;;18.93;10.67;;;;;0.50;101492.00;;;;10300108;28;20211;-77
2022/03/09 01:13:09;;;;;;;17.30;11.17;;;;;0.30;101490.00;;;;10274760;28;20228;-77
2022/03/09 01:18:12;;;;;;;18.10;11.77;;;;;0.10;101494.00;;;;10304338;28;20227;-77
2022/03/09 01:23:14;;;;;;;21.17;11.90;;;;;-0.10;101494.00;;;;10272095;28;20235;-77
2022/03/09 01:28:16;;;;;;;23.37;12.43;;;;;-0.30;101486.00;;;;10293607;28;20246;-77
2022/03/09 01:33:19;;;;;;;18.87;11.03;;;;;-0.20;101496.00;;;;10289313;28;20212;-77
2022/03/09 01:38:24;;;;;;;17.57;11.63;;;;;0.00;101493.00;;;;10298685;28;20266;-77
2022/03/09 01:43:26;;;;;;;18.27;11.57;;;;;0.20;101493.00;;;;10282957;28;20197;-77
2022/03/09 01:48:28;;;;;;;18.80;11.57;;;;;0.30;101497.00;;;;10330522;28;20203;-77
2022/03/09 01:53:30;;;;;;;17.67;10.63;;;;;0.40;101493.00;;;;10311437;28;20786;-77
2022/03/09 01:58:32;;;;;;;18.20;11.20;;;;;0.40;101495.00;;;;10317414;28;20220;-77
2022/03/09 02:03:35;;;;;;;17.10;10.77;;;;;0.40;101491.00;;;;10265446;28;20196;-76
2022/03/09 02:14:02;;;;;;;17.43;11.57;;;;;0.70;101490.00;;;;10294309;28;20947;-76
2022/03/09 02:19:04;;;;;;;20.23;12.23;;;;;0.80;101486.00;;;;10321438;28;20204;-76
2022/03/09 02:24:06;;;;;;;17.60;11.70;;;;;0.70;101484.00;;;;10291744;28;20221;-76
2022/03/09 02:29:08;;;;;;;18.27;11.77;;;;;0.60;101484.00;;;;10305354;28;20200;-76
2022/03/09 02:34:10;;;;;;;16.93;10.90;;;;;0.60;101474.00;;;;10321828;28;20208;-77
2022/03/09 02:39:12;;;;;;;17.50;10.53;;;;;0.50;101478.00;;;;10284269;28;20228;-76
2022/03/09 02:44:15;;;;;;;17.70;11.37;;;;;0.40;101477.00;;;;10279837;28;20275;-77
2022/03/09 02:49:17;;;;;;;21.30;11.80;;;;;0.30;101474.00;;;;10300088;28;20196;-77
2022/03/09 02:54:19;;;;;;;18.13;12.23;;;;;0.20;101481.00;;;;10328343;28;20696;-77
2022/03/09 02:59:20;;;;;;;19.07;11.57;;;;;0.20;101476.00;;;;10322701;28;20199;-77
2022/03/09 03:04:22;;;;;;;17.83;11.60;;;;;0.10;101478.00;;;;10302773;28;20262;-77
2022/03/09 03:09:24;;;;;;;20.17;11.33;;;;;0.10;101481.00;;;;10324488;28;20291;-77
2022/03/09 03:14:26;;;;;;;17.13;11.03;;;;;0.10;101487.00;;;;10294244;28;20206;-77
2022/03/09 03:19:29;;;;;;;17.57;11.77;;;;;-0.10;101492.00;;;;10292589;28;20200;-77
2022/03/09 03:24:32;;;;;;;17.53;11.13;;;;;-0.40;101478.00;;;;10299188;28;20237;-77
2022/03/09 03:29:33;;;;;;;20.97;11.97;;;;;-0.60;101478.00;;;;10275194;28;20255;-77
2022/03/09 03:34:35;;;;;;;20.13;12.70;;;;;-0.70;101471.00;;;;10297238;28;20245;-77
2022/03/09 03:39:37;;;;;;;18.93;11.93;;;;;-0.70;101476.00;;;;10290744;28;20217;-77
2022/03/09 03:44:39;;;;;;;18.37;12.13;;;;;-0.80;101479.00;;;;10277264;28;20208;-77
2022/03/09 03:49:41;;;;;;;19.07;11.83;;;;;-0.90;101476.00;;;;10272328;28;20230;-77
2022/03/09 03:54:43;;;;;;;21.53;11.83;;;;;-0.90;101480.00;;;;10310306;28;20746;-76
2022/03/09 03:59:45;;;;;;;20.63;12.13;;;;;-0.90;101487.00;;;;10293006;28;20204;-77
2022/03/09 04:04:47;;;;;;;24.17;12.20;;;;;-0.90;101494.00;;;;10291769;28;20332;-77
2022/03/09 04:09:49;;;;;;;16.70;10.47;;;;;-1.00;101476.00;;;;10305946;28;21807;-76
2022/03/09 04:14:52;;;;;;;18.13;10.80;;;;;-1.10;101488.00;;;;10330880;28;20246;-77
2022/03/09 04:19:54;;;;;;;20.63;11.30;;;;;-1.20;101479.00;;;;10296878;28;20769;-77
2022/03/09 04:24:56;;;;;;;16.50;10.97;;;;;-1.30;101470.00;;;;10294414;28;20254;-76
2022/03/09 04:29:59;;;;;;;17.70;10.70;;;;;-1.40;101471.00;;;;10295818;28;20219;-76
2022/03/09 04:35:06;;;;;;;16.80;10.03;;;;;-1.30;101464.00;;;;10296486;28;20218;-77
2022/03/09 04:40:11;;;;;;;15.47;9.40;;;;;-0.80;101465.00;;;;10305564;28;20228;-76
2022/03/09 04:45:13;;;;;;;15.63;9.40;;;;;-0.30;101465.00;;;;10275321;28;20786;-76
2022/03/09 04:50:15;;;;;;;16.53;9.43;;;;;-0.20;101470.00;;;;10277189;28;20204;-76
2022/03/09 04:55:17;;;;;;;13.97;9.17;;;;;-0.10;101470.00;;;;10304719;28;20217;-76
2022/03/09 05:00:19;;;;;;;14.80;8.37;;;;;0.20;101463.00;;;;10304487;28;20203;-76
2022/03/09 05:05:21;;;;;;;13.53;8.77;;;;;0.20;101470.00;;;;10316690;28;20603;-76
2022/03/09 05:10:23;;;;;;;15.97;8.93;;;;;0.50;101477.00;;;;10271863;28;20207;-76
2022/03/09 05:15:25;;;;;;;11.47;8.27;;;;;0.50;101478.00;;;;10292247;28;20208;-76
2022/03/09 05:20:27;;;;;;;16.43;9.27;;;;;0.30;101482.00;;;;10319095;28;20566;-76
2022/03/09 05:25:29;;;;;;;19.53;9.37;;;;;0.00;101483.00;;;;10292667;28;20287;-76
2022/03/09 05:30:31;;;;;;;14.73;8.80;;;;;0.00;101479.00;;;;10278661;28;20234;-76
2022/03/09 05:35:36;;;;;;;19.37;9.77;;;;;0.10;101481.00;;;;10283164;28;20223;-76
2022/03/09 05:40:38;;;;;;;16.47;9.17;;;;;0.20;101487.00;;;;10301480;28;20286;-76
2022/03/09 05:45:40;;;;;;;14.17;8.50;;;;;0.20;101490.00;;;;10327323;28;20207;-76
2022/03/09 05:50:43;;;;;;;12.57;8.33;;;;;0.30;101500.00;;;;10318646;28;20239;-76
2022/03/09 05:55:45;;;;;;;15.40;8.93;;;;;0.30;101492.00;;;;10292510;28;20224;-76
2022/03/09 06:00:47;;;;;;;15.83;9.30;;;;;0.50;101502.00;;;;10303519;28;20216;-76
2022/03/09 06:05:50;;;;;;;16.53;9.10;;;;;0.70;101503.00;;;;10312012;28;20201;-76
2022/03/09 06:10:52;;;;;;;15.63;8.77;;;;;0.80;101507.00;;;;10320822;28;20291;-76
2022/03/09 06:15:54;;;;;;;17.37;9.60;;;;;0.80;101507.00;;;;10318387;28;20757;-77
2022/03/09 06:20:56;;;;;;;16.17;9.27;;;;;0.90;101514.00;;;;10292918;28;20315;-77
2022/03/09 06:25:59;;;;;;;18.10;8.70;;;;;1.10;101522.00;;;;10310880;28;20251;-77
2022/03/09 06:31:03;;;;;;;16.97;10.27;;;;;1.10;101521.00;;;;10310167;28;20227;-76
2022/03/09 06:36:06;;;;;;;17.27;9.43;;;;;1.20;101520.00;;;;10321850;28;20228;-76
2022/03/09 06:41:10;;;;;;;16.77;9.57;;;;;1.30;101509.00;;;;10276606;28;20232;-78
2022/03/09 06:46:12;;;;;;;15.90;9.37;;;;;1.50;101517.00;;;;10295816;28;20247;-76
2022/03/09 06:51:15;;;;;;;18.03;10.10;;;;;1.80;101528.00;;;;10292820;28;20602;-76
2022/03/09 06:56:20;;;;;;;16.93;10.00;;;;;2.10;101535.00;;;;10287464;28;20216;-76
2022/03/09 07:01:21;;;;;;;16.73;10.60;;;;;2.40;101535.00;;;;10300677;28;20226;-76
2022/03/09 07:06:24;;;;;;;16.33;9.57;;;;;2.70;101521.00;;;;10311741;28;20207;-76
2022/03/09 07:11:26;;;;;;;19.17;12.10;;;;;3.20;101537.00;;;;10313163;28;20904;-76
2022/03/09 07:16:28;;;;;;;20.07;11.60;;;;;3.60;101543.00;;;;10300134;28;20447;-77
2022/03/09 07:21:31;;;;;;;18.47;10.93;;;;;4.10;101554.00;;;;10294357;28;20245;-77
2022/03/09 07:26:33;;;;;;;21.07;11.17;;;;;4.60;101551.00;;;;10295323;28;20208;-77
2022/03/09 07:31:35;;;;;;;21.37;13.07;;;;;5.10;101559.00;;;;10325852;28;20207;-77
2022/03/09 07:36:37;;;;;;;25.53;13.60;;;;;5.50;101563.00;;;;10304073;28;20223;-78
2022/03/09 07:41:40;;;;;;;17.07;10.13;;;;;5.80;101568.00;;;;10297684;28;20706;-77
2022/03/09 07:46:42;;;;;;;19.67;12.43;;;;;6.10;101577.00;;;;10296738;28;20211;-77
2022/03/09 07:51:45;;;;;;;21.27;11.63;;;;;6.40;101573.00;;;;10278332;28;20208;-77
2022/03/09 07:56:49;;;;;;;20.63;12.43;;;;;6.80;101569.00;;;;10327250;28;20215;-77
2022/03/09 08:01:52;;;;;;;19.20;11.10;;;;;7.00;101567.00;;;;10308002;28;20192;-77
2022/03/09 08:06:56;;;;;;;18.70;11.83;;;;;7.30;101577.00;;;;10317941;28;20239;-77
2022/03/09 08:11:58;;;;;;;23.87;11.87;;;;;7.60;101580.00;;;;10286284;28;20192;-77
2022/03/09 08:17:00;;;;;;;17.60;12.00;;;;;7.90;101581.00;;;;10327238;28;20227;-77
2022/03/09 08:22:02;;;;;;;20.63;12.43;;;;;8.20;101587.00;;;;10274207;28;20710;-77
2022/03/09 08:27:05;;;;;;;20.73;12.07;;;;;8.60;101588.00;;;;10282826;28;20693;-77
2022/03/09 08:32:07;;;;;;;18.07;12.13;;;;;8.90;101586.00;;;;10320067;28;20220;-77
2022/03/09 08:37:10;;;;;;;22.70;13.47;;;;;9.20;101601.00;;;;10311026;28;20698;-77
2022/03/09 08:42:12;;;;;;;20.63;12.83;;;;;9.60;101585.00;;;;10311261;28;20203;-77
2022/03/09 08:47:15;;;;;;;22.50;13.17;;;;;9.90;101592.00;;;;10318686;28;20200;-77
2022/03/09 08:52:17;;;;;;;18.93;13.90;;;;;10.20;101606.00;;;;10287398;28;20769;-77
2022/03/09 08:57:23;;;;;;;21.70;14.37;;;;;10.60;101600.00;;;;10317172;28;20262;-76
2022/03/09 09:02:26;;;;;;;22.13;14.53;;;;;11.00;101602.00;;;;10283886;28;20238;-76
2022/03/09 09:07:28;;;;;;;23.00;14.77;;;;;11.20;101598.00;;;;10284234;28;20224;-76
2022/03/09 09:12:30;;;;;;;25.97;14.87;;;;;11.40;101600.00;;;;10287265;28;20205;-76
2022/03/09 09:17:33;;;;;;;23.57;14.47;;;;;11.80;101596.00;;;;10283371;28;20231;-76
2022/03/09 09:22:42;;;;;;;28.57;16.00;;;;;12.20;101598.00;;;;10280648;28;20608;-76
2022/03/09 09:28:04;;;;;;;21.97;14.37;;;;;12.70;101603.00;;;;10300742;28;20220;-76
2022/03/09 09:33:06;;;;;;;23.37;15.53;;;;;13.10;101597.00;;;;10295720;28;20880;-76
2022/03/09 09:38:08;;;;;;;25.33;16.57;;;;;13.50;101601.00;;;;10284465;28;20216;-75
2022/03/09 09:43:13;;;;;;;23.07;16.20;;;;;13.80;101602.00;;;;10301117;28;20200;-76
2022/03/09 09:48:15;;;;;;;26.03;16.43;;;;;14.20;101594.00;;;;10271440;28;20671;-74
2022/03/09 09:53:17;;;;;;;26.07;16.67;;;;;14.40;101598.00;;;;10300343;28;20205;-75
2022/03/09 09:58:20;;;;;;;23.10;15.70;;;;;14.70;101593.00;;;;10331808;28;20226;-75
2022/03/09 10:03:22;;;;;;;27.83;16.90;;;;;15.00;101602.00;;;;10332482;28;20201;-76
2022/03/09 10:08:24;;;;;;;27.77;17.10;;;;;15.20;101597.00;;;;10285512;28;20203;-76
2022/03/09 10:13:29;;;;;;;29.73;18.23;;;;;15.60;101598.00;;;;10279408;28;20275;-75
2022/03/09 10:18:38;;;;;;;26.20;17.73;;;;;15.90;101596.00;;;;10277123;28;20220;-75
2022/03/09 10:24:01;;;;;;;26.83;17.93;;;;;16.30;101604.00;;;;10290604;28;20200;-75
2022/03/09 10:29:06;;;;;;;27.13;18.30;;;;;16.60;101585.00;;;;10324212;28;20284;-76
2022/03/09 10:34:10;;;;;;;34.47;19.85;;;;;16.90;101592.00;;;;10292771;28;20709;-76
2022/03/09 10:39:15;;;;;;;30.58;18.80;;;;;17.20;101595.00;;;;10309028;28;20761;-76
2022/03/09 10:44:17;;;;;;;32.13;20.75;;;;;17.40;101590.00;;;;10302636;28;20204;-76
2022/03/09 10:49:24;;;;;;;29.65;19.60;;;;;17.60;101597.00;;;;10324024;28;20207;-76
2022/03/09 10:54:28;;;;;;;29.77;18.77;;;;;17.80;101594.00;;;;10302156;28;20677;-76
2022/03/09 10:59:43;;;;;;;30.50;20.77;;;;;17.90;101590.00;;;;10292698;28;20239;-76
2022/03/09 11:05:14;;;;;;;37.25;20.35;;;;;17.90;101589.00;;;;10316050;28;20235;-76
2022/03/09 11:10:16;;;;;;;32.88;20.38;;;;;18.20;101591.00;;;;10304175;28;21424;-75
2022/03/09 11:15:21;;;;;;;32.80;20.48;;;;;18.60;101595.00;;;;10307631;28;20250;-75
2022/03/09 11:20:23;;;;;;;29.23;20.33;;;;;18.70;101595.00;;;;10301475;28;20224;-75
2022/03/09 11:25:25;;;;;;;34.08;20.58;;;;;18.80;101584.00;;;;10283192;28;20210;-75
2022/03/09 11:30:29;;;;;;;30.02;20.35;;;;;19.00;101584.00;;;;10302060;28;20263;-75
2022/03/09 11:35:37;;;;;;;36.17;20.70;;;;;19.10;101584.00;;;;10301960;28;20258;-75
2022/03/09 11:40:39;;;;;;;33.88;21.35;;;;;19.00;101582.00;;;;10299205;28;20227;-76
2022/03/09 11:45:49;;;;;;;36.95;20.20;;;;;19.00;101574.00;;;;10287539;28;20207;-75
2022/03/09 11:50:51;;;;;;;33.75;20.52;;;;;19.30;101581.00;;;;10305951;28;20590;-75
2022/03/09 11:56:31;;;;;;;35.67;19.90;;;;;19.40;101576.00;;;;10299741;28;20212;-76
2022/03/09 12:01:57;;;;;;;33.90;21.05;;;;;19.50;101573.00;;;;10306186;28;20262;-76
2022/03/09 12:07:06;;;;;;;30.88;20.80;;;;;19.60;101570.00;;;;10316845;28;20204;-76
2022/03/09 12:12:09;;;;;;;30.77;19.20;;;;;19.70;101562.00;;;;10307686;28;20215;-75
2022/03/09 12:17:30;;;;;;;34.33;20.98;;;;;19.60;101561.00;;;;10254204;28;20231;-76
2022/03/09 12:22:54;;;;;;;29.20;20.02;;;;;19.70;101569.00;;;;10320953;28;20223;-76
2022/03/09 12:28:19;;;;;;;32.10;21.08;;;;;19.90;101560.00;;;;10335252;28;20226;-75
2022/03/09 12:33:35;;;;;;;31.20;19.63;;;;;20.20;101551.00;;;;10274001;28;20200;-76
2022/03/09 12:38:38;;;;;;;29.23;20.55;;;;;20.10;101552.00;;;;10300135;28;20884;-76
2022/03/09 12:43:48;;;;;;;30.20;20.80;;;;;20.20;101551.00;;;;10282325;28;20231;-76
2022/03/09 12:48:50;;;;;;;31.63;19.80;;;;;20.20;101555.00;;;;10316629;28;20290;-76
2022/03/09 12:53:52;;;;;;;32.50;20.52;;;;;20.20;101551.00;;;;10319059;28;20204;-76
2022/03/09 12:59:08;;;;;;;32.30;19.00;;;;;20.40;101544.00;;;;10308640;28;20231;-75
2022/03/09 13:04:10;;;;;;;28.75;18.70;;;;;20.40;101541.00;;;;10301766;28;20223;-76
2022/03/09 13:09:22;;;;;;;28.55;18.45;;;;;20.60;101534.00;;;;10305413;28;20212;-75
2022/03/09 13:14:25;;;;;;;29.30;18.95;;;;;20.60;101534.00;;;;10325431;28;20759;-76
2022/03/09 13:19:33;;;;;;;33.88;20.17;;;;;20.70;101525.00;;;;10309681;28;20682;-76
2022/03/09 13:24:35;;;;;;;30.10;20.33;;;;;20.80;101518.00;;;;10335935;28;20204;-76
2022/03/09 13:29:41;;;;;;;30.13;19.40;;;;;20.80;101519.00;;;;10300107;28;20316;-76
2022/03/09 13:34:44;;;;;;;32.50;20.33;;;;;20.50;101514.00;;;;10309472;28;20254;-76
2022/03/09 13:39:49;;;;;;;30.25;19.30;;;;;20.80;101508.00;;;;10295633;28;20297;-76
2022/03/09 13:45:06;;;;;;;29.30;19.98;;;;;21.50;101508.00;;;;10290499;28;22065;-76
2022/03/09 13:50:19;;;;;;;30.25;19.85;;;;;22.30;101506.00;;;;10302264;28;20322;-76
2022/03/09 13:55:27;;;;;;;32.53;21.25;;;;;23.70;101482.00;;;;10327480;28;20204;-76
2022/03/09 14:00:33;;;;;;;31.08;19.52;;;;;21.90;101488.00;;;;10307814;28;20223;-76
2022/03/09 14:05:39;;;;;;;30.60;19.48;;;;;23.90;101443.00;;;;10310248;28;20208;-76
2022/03/09 14:10:41;;;;;;;29.42;18.75;;;;;24.40;101445.00;;;;10291334;28;20347;-75
2022/03/09 14:15:47;;;;;;;35.33;19.75;;;;;24.10;101447.00;;;;10293650;28;20328;-75
2022/03/09 14:20:50;;;;;;;28.20;18.40;;;;;23.20;101464.00;;;;10328624;28;20224;-75
2022/03/09 14:25:52;;;;;;;32.40;20.05;;;;;23.00;101445.00;;;;10262722;28;20204;-75
2022/03/09 14:30:54;;;;;;;35.80;20.95;;;;;23.80;101423.00;;;;10312674;28;20989;-75
2022/03/09 14:35:58;;;;;;;28.10;18.40;;;;;23.80;101426.00;;;;10294913;28;20234;-75
2022/03/09 14:41:00;;;;;;;34.33;20.10;;;;;23.40;101433.00;;;;10307627;28;20224;-75
2022/03/09 14:46:03;;;;;;;33.38;19.65;;;;;24.40;101420.00;;;;10294482;28;20514;-75
2022/03/09 14:51:06;;;;;;;31.42;19.27;;;;;25.20;101438.00;;;;10262356;28;20200;-76
2022/03/09 14:56:10;;;;;;;31.90;20.75;;;;;24.30;101406.00;;;;10275453;28;20666;-76
2022/03/09 15:01:11;;;;;;;31.00;20.45;;;;;23.40;101445.00;;;;10330510;28;20238;-75
2022/03/09 15:06:14;;;;;;;30.35;19.67;;;;;24.20;101439.00;;;;10285397;28;20192;-75
2022/03/09 15:11:17;;;;;;;34.25;19.88;;;;;22.60;101452.00;;;;10294540;28;20255;-75
2022/03/09 15:16:19;;;;;;;33.08;19.98;;;;;22.90;101443.00;;;;10281144;28;20932;-76
2022/03/09 15:21:28;;;;;;;28.20;19.27;;;;;22.00;101423.00;;;;10289777;28;20679;-75
2022/03/09 15:26:30;;;;;;;33.63;19.20;;;;;23.70;101418.00;;;;10304792;28;20204;-75
2022/03/09 15:31:32;;;;;;;31.83;19.67;;;;;23.40;101433.00;;;;10287420;28;20299;-76
2022/03/09 15:36:34;;;;;;;30.33;18.05;;;;;23.40;101447.00;;;;10294204;28;20220;-76
2022/03/09 15:41:38;;;;;;;30.70;19.60;;;;;20.60;101492.00;;;;10292282;28;20228;-76
2022/03/09 15:46:40;;;;;;;29.73;18.25;;;;;19.40;101485.00;;;;10311090;28;20224;-77
2022/03/09 15:51:42;;;;;;;30.85;19.45;;;;;18.30;101489.00;;;;10320169;28;20212;-76
2022/03/09 15:56:44;;;;;;;30.60;19.15;;;;;17.50;101492.00;;;;10308578;28;20492;-76
2022/03/09 16:01:47;;;;;;;31.35;18.65;;;;;16.80;101496.00;;;;10304831;28;20204;-76
2022/03/09 16:06:52;;;;;;;31.47;19.57;;;;;16.50;101503.00;;;;10293452;28;20215;-76
2022/03/09 16:11:54;;;;;;;33.90;17.97;;;;;16.40;101489.00;;;;10283228;28;20768;-77
2022/03/09 16:16:58;;;;;;;29.93;17.40;;;;;16.00;101498.00;;;;10310060;28;20200;-77
2022/03/09 16:22:01;;;;;;;29.63;17.90;;;;;15.60;101491.00;;;;10311977;28;20197;-77
2022/03/09 16:27:05;;;;;;;33.60;18.93;;;;;15.20;101492.00;;;;10289856;28;20196;-76
2022/03/09 16:32:07;;;;;;;34.13;18.13;;;;;15.00;101498.00;;;;10305160;28;20201;-77
2022/03/09 16:37:09;;;;;;;32.90;16.23;;;;;14.70;101502.00;;;;10283338;28;20293;-77
2022/03/09 16:42:11;;;;;;;30.17;17.70;;;;;14.50;101503.00;;;;10291340;28;20196;-77
2022/03/09 16:47:13;;;;;;;27.37;15.63;;;;;14.30;101496.00;;;;10296337;28;20215;-77
2022/03/09 16:52:15;;;;;;;29.90;17.87;;;;;14.10;101504.00;;;;10288871;28;20223;-76
2022/03/09 16:57:17;;;;;;;29.30;17.23;;;;;13.80;101507.00;;;;10289961;28;20212;-77
2022/03/09 17:02:19;;;;;;;30.97;18.27;;;;;13.50;101504.00;;;;10305853;28;20288;-76
2022/03/09 17:07:22;;;;;;;30.63;18.33;;;;;13.20;101510.00;;;;10291263;28;20207;-77
2022/03/09 17:12:23;;;;;;;31.73;18.37;;;;;13.00;101504.00;;;;10273306;28;20557;-76
2022/03/09 17:17:25;;;;;;;32.07;17.33;;;;;12.60;101513.00;;;;10287406;28;20216;-76
2022/03/09 17:22:30;;;;;;;31.13;17.03;;;;;12.20;101521.00;;;;10298932;28;20750;-76
2022/03/09 17:27:33;;;;;;;29.73;16.37;;;;;12.00;101520.00;;;;10247333;28;20232;-76
2022/03/09 17:32:39;;;;;;;32.97;17.57;;;;;11.80;101523.00;;;;10330670;28;20900;-76
2022/03/09 17:37:42;;;;;;;30.43;16.80;;;;;11.50;101523.00;;;;10291491;28;20235;-76
2022/03/09 17:42:44;;;;;;;32.20;16.47;;;;;11.20;101536.00;;;;10314358;28;20267;-76
2022/03/09 17:47:47;;;;;;;28.07;16.50;;;;;11.00;101542.00;;;;10297875;28;20211;-76
2022/03/09 17:52:49;;;;;;;30.13;15.90;;;;;10.90;101539.00;;;;10312353;28;20254;-76
2022/03/09 17:57:51;;;;;;;34.23;18.10;;;;;10.70;101535.00;;;;10297406;28;20219;-77
2022/03/09 18:02:54;;;;;;;32.47;19.40;;;;;10.50;101541.00;;;;10313738;28;20231;-77
2022/03/09 18:07:56;;;;;;;30.23;17.30;;;;;10.30;101543.00;;;;10300701;28;20208;-77
2022/03/09 18:13:00;;;;;;;26.80;16.00;;;;;10.20;101555.00;;;;10298595;28;20671;-76
2022/03/09 18:18:02;;;;;;;31.67;17.23;;;;;10.30;101556.00;;;;10315756;28;20270;-77
2022/03/09 18:23:04;;;;;;;36.33;18.80;;;;;10.20;101569.00;;;;10312084;28;20200;-76
2022/03/09 18:28:07;;;;;;;35.43;21.10;;;;;10.10;101566.00;;;;10302400;28;20211;-77
2022/03/09 18:33:09;;;;;;;38.07;21.37;;;;;9.90;101573.00;;;;10313314;28;20212;-77
2022/03/09 18:38:11;;;;;;;36.33;19.47;;;;;9.90;101579.00;;;;10311071;28;20228;-77
2022/03/09 18:43:14;;;;;;;39.63;21.50;;;;;9.90;101583.00;;;;10298164;28;20251;-76
2022/03/09 18:48:16;;;;;;;36.10;21.60;;;;;9.80;101570.00;;;;10270951;28;20211;-77
2022/03/09 18:53:18;;;;;;;36.20;19.77;;;;;9.70;101557.00;;;;10282655;28;20192;-77
2022/03/09 18:58:24;;;;;;;31.13;17.87;;;;;9.60;101560.00;;;;10289416;28;20247;-77
2022/03/09 19:03:26;;;;;;;49.50;22.70;;;;;9.50;101565.00;;;;10295143;28;20250;-77
2022/03/09 19:08:28;;;;;;;41.13;19.77;;;;;9.40;101575.00;;;;10293803;28;20204;-77
2022/03/09 19:13:30;;;;;;;34.07;19.17;;;;;9.30;101573.00;;;;10276411;28;20208;-77
2022/03/09 19:18:32;;;;;;;34.70;19.30;;;;;9.20;101573.00;;;;10310033;28;20254;-77
2022/03/09 19:23:34;;;;;;;40.77;20.53;;;;;9.10;101578.00;;;;10329455;28;20276;-77
2022/03/09 19:28:36;;;;;;;39.03;19.73;;;;;9.00;101593.00;;;;10278630;28;20291;-77
2022/03/09 19:33:38;;;;;;;37.60;19.83;;;;;8.80;101596.00;;;;10300132;28;20208;-77
2022/03/09 19:38:41;;;;;;;37.43;22.03;;;;;8.80;101590.00;;;;10282955;28;20228;-77
2022/03/09 19:43:43;;;;;;;39.93;21.87;;;;;8.50;101589.00;;;;10310922;28;20200;-77
2022/03/09 19:48:45;;;;;;;39.20;21.87;;;;;8.10;101593.00;;;;10276799;28;20208;-77
2022/03/09 19:53:47;;;;;;;44.57;21.83;;;;;7.70;101586.00;;;;10279207;28;20200;-77
2022/03/09 19:58:49;;;;;;;38.33;20.17;;;;;7.60;101588.00;;;;10271426;28;20250;-77
2022/03/09 20:03:52;;;;;;;37.47;20.17;;;;;7.70;101593.00;;;;10286589;28;20690;-77
2022/03/09 20:08:54;;;;;;;33.50;17.63;;;;;7.90;101585.00;;;;10298430;28;20263;-77
2022/03/09 20:13:57;;;;;;;43.03;20.43;;;;;8.00;101592.00;;;;10315033;28;20275;-77
2022/03/09 20:18:59;;;;;;;35.33;18.23;;;;;8.00;101595.00;;;;10298641;28;20224;-77
2022/03/09 20:24:01;;;;;;;38.83;20.43;;;;;7.90;101598.00;;;;10311004;28;20200;-77
2022/03/09 20:29:05;;;;;;;42.80;20.93;;;;;7.70;101607.00;;;;10321869;28;20196;-77
2022/03/09 20:34:07;;;;;;;43.23;22.50;;;;;7.40;101607.00;;;;10298444;28;20303;-77
2022/03/09 20:39:09;;;;;;;36.00;20.60;;;;;7.20;101600.00;;;;10313511;28;20224;-77
2022/03/09 20:44:11;;;;;;;44.40;22.37;;;;;7.00;101599.00;;;;10294154;28;20216;-77
2022/03/09 20:49:14;;;;;;;39.17;21.40;;;;;6.70;101602.00;;;;10318571;28;20250;-77
2022/03/09 20:54:16;;;;;;;40.33;20.70;;;;;6.20;101609.00;;;;10322893;28;20204;-77
2022/03/09 20:59:18;;;;;;;47.17;24.60;;;;;5.90;101609.00;;;;10295725;28;20254;-77
2022/03/09 21:04:21;;;;;;;40.17;22.10;;;;;5.70;101612.00;;;;10306637;28;20259;-77
2022/03/09 21:09:24;;;;;;;41.03;21.30;;;;;5.60;101617.00;;;;10291206;28;20196;-76
2022/03/09 21:14:26;;;;;;;36.57;21.00;;;;;5.40;101620.00;;;;10287493;28;20208;-77
2022/03/09 21:19:28;;;;;;;38.57;21.27;;;;;5.10;101628.00;;;;10297651;28;20218;-77
2022/03/09 21:25:04;;;;;;;38.23;20.70;;;;;4.90;101634.00;;;;10306634;28;20278;-77
2022/03/09 21:29:53;;;;;;;39.33;21.27;;;;;4.70;101631.00;;;;10286643;28;20196;-76
2022/03/09 21:34:55;;;;;;;39.70;21.87;;;;;4.60;101650.00;;;;10297916;28;20227;-76
2022/03/09 21:39:57;;;;;;;41.37;21.00;;;;;4.40;101653.00;;;;10324913;28;20216;-76
2022/03/09 21:44:59;;;;;;;39.90;20.53;;;;;4.40;101662.00;;;;10293343;28;20270;-77
2022/03/09 21:50:02;;;;;;;39.60;21.47;;;;;4.40;101661.00;;;;10306834;28;20648;-76
2022/03/09 21:55:05;;;;;;;41.23;21.80;;;;;4.50;101666.00;;;;10285300;28;20224;-76
2022/03/09 22:00:09;;;;;;;39.53;20.00;;;;;4.50;101666.00;;;;10295679;28;20310;-76
2022/03/09 22:05:14;;;;;;;37.93;20.17;;;;;4.30;101673.00;;;;10291683;28;20209;-76
2022/03/09 22:10:17;;;;;;;41.67;20.83;;;;;4.20;101678.00;;;;10273762;28;20205;-77
2022/03/09 22:15:19;;;;;;;40.27;19.67;;;;;4.10;101674.00;;;;10323957;28;20339;-75
2022/03/09 22:20:22;;;;;;;39.77;20.10;;;;;3.90;101678.00;;;;10331377;28;20220;-76
2022/03/09 22:25:24;;;;;;;36.57;19.73;;;;;3.90;101678.00;;;;10299657;28;20258;-76
2022/03/09 22:30:27;;;;;;;40.23;20.30;;;;;4.30;101679.00;;;;10301058;28;20255;-77
2022/03/09 22:35:29;;;;;;;36.37;18.33;;;;;4.70;101682.00;;;;10288391;28;20200;-77
2022/03/09 22:40:32;;;;;;;41.33;20.77;;;;;5.00;101682.00;;;;10296244;28;20228;-76
2022/03/09 22:45:36;;;;;;;43.27;21.63;;;;;4.70;101686.00;;;;10280667;28;20690;-77
2022/03/09 22:50:38;;;;;;;36.80;19.83;;;;;4.30;101688.00;;;;10255451;28;20320;-77
2022/03/09 22:55:40;;;;;;;35.10;19.90;;;;;3.90;101672.00;;;;10278244;28;20188;-77
2022/03/09 23:00:43;;;;;;;39.90;20.50;;;;;3.70;101677.00;;;;10291260;28;20220;-77
2022/03/09 23:05:45;;;;;;;42.60;22.47;;;;;3.70;101679.00;;;;10315514;28;20299;-75
2022/03/09 23:10:48;;;;;;;43.60;21.33;;;;;3.60;101681.00;;;;10279979;28;20286;-75
2022/03/09 23:15:50;;;;;;;39.47;20.10;;;;;3.90;101672.00;;;;10285557;28;20196;-75
2022/03/09 23:20:52;;;;;;;38.67;19.40;;;;;4.40;101682.00;;;;10293633;28;20587;-75
2022/03/09 23:25:54;;;;;;;39.33;20.10;;;;;4.50;101682.00;;;;10295131;28;20459;-75
2022/03/09 23:30:56;;;;;;;41.60;22.10;;;;;4.20;101682.00;;;;10296350;28;20259;-75
2022/03/09 23:35:58;;;;;;;37.97;20.77;;;;;3.70;101677.00;;;;10311392;28;20239;-75
2022/03/09 23:40:59;;;;;;;41.47;21.10;;;;;3.30;101693.00;;;;10295077;28;20230;-75
2022/03/09 23:46:01;;;;;;;42.17;20.40;;;;;3.20;101685.00;;;;10295203;28;20258;-76
2022/03/09 23:51:04;;;;;;;41.50;21.50;;;;;3.40;101690.00;;;;10278788;28;20335;-75
2022/03/09 23:56:09;;;;;;;40.57;21.50;;;;;3.40;101690.00;;;;10327562;28;20847;-75
